South Chaplin, Connecticut
Current Conditions -  °F | °C
As of 8:52 AM on Monday 26 Jan 2015 (Local Time) from KIJD Reporting Station
Overcast Overcast  
Wind Chill:   Ceiling: 7500
Heat Index: 16°   Visibility: 10mi
Dew Point:   Wind: 12mph
Humidity: 49%   Direction: 40°NE
Pressure: 30.09"   Gusts: NA
Location:  41.7601°N, 72.123°W
Report Text: KIJD 261352Z AUTO 04010KT 10SM OVC075 M09/M18 A3009 RMK AO2 SLP194 T10891178
Loading
Personal Weather Stations






























Interactive Weather Map New forecast layout! Learn more

10-Day Weather Forecast

Advertisements
Track Severe Weather on mobile